Alamo, Nevada Weather observations

Data are for observation ending at time listed.
 Day   Time    Ave.   Ave.  Ave.  Vector   Max.   Stn.    Total    Solar   Ave.  
  of    of     Air    Rel.  Wind   Wind    Wind   Baro.  Precip.   Rad.    Soil  
Year   Day     Temp.  Hum.  Speed  Dir.    Gust   Pres.                    Temp. 
2016   (PST)    F      %     mph   deg.    mph     mb.     in.     W/m2     F   
------------------------------------------------------------------------------
 181   19:30   86.0    25    3.8   336      6.6   897.4    0.00       0    84.7
 181   19:40   86.1    24    3.2   324      7.6   897.3    0.00       0    84.5
 181   19:50   86.3    24    3.4   337      6.6   897.4    0.00       0    84.2
 181   20:00   86.2    24    3.3   329      6.9   897.6    0.00       0    84.0
 181   20:10   85.8    25    2.3   320      5.3   897.6    0.00       0    83.8
 181   20:20   85.1    25    2.2   354      5.2   897.8    0.00       0    83.6
 181   20:30   84.1    27    2.4    24      6.3   898.0    0.00       0    83.4
 181   20:40   82.2    30    0.1   110      1.3   898.2    0.00       0    83.2
 181   20:50   80.4    32    0.3   201      1.5   898.3    0.00       0    83.0
 181   21:00   78.6    36    0.5   248      2.0   898.4    0.00       0    82.8
 181   21:10   78.2    36    0.1   284      1.2   897.5    0.00       0    82.6
 181   21:20   77.2    39    0.3    33      1.0   898.0    0.00       0    82.3
 181   21:30   76.3    40    0.1    34      1.1   898.2    0.00       0    82.1
 181   21:40   75.5    40    0.1   304      1.0   898.0    0.00       0    81.9
 181   21:50   74.5    42    0.3   278      1.6   898.0    0.00       0    81.6
 181   22:00   74.1    42    0.9    43      2.3   897.7    0.00       0    81.3
 181   22:10   73.3    46    1.0   265      3.5   897.6    0.00       0    81.1
 181   22:20   73.1    46    0.5    92      2.8   897.8    0.00       0    80.8
 181   22:30   72.4    47    0.8    41      3.4   898.2    0.00       0    80.6
 181   22:40   72.3    47    0.2    65      1.5   898.6    0.00       0    80.4
 181   22:50   71.8    47    0.2   206      1.5   898.4    0.00       0    80.2
 181   23:00   71.9    45    0.7    80      2.3   897.8    0.00       0    79.9
 181   23:10   72.1    44    0.6    73      2.7   897.7    0.00       0    79.7
 181   23:20   72.6    43    1.0   207      2.5   897.6    0.00       0    79.5
 181   23:30   73.2    42    0.8   187      2.9   897.7    0.00       0    79.3
 181   23:40   72.8    42    0.3    64      1.0   897.7    0.00       0    79.1
 181   23:50   72.2    44    0.1   206      0.8   897.7    0.00       0    78.9
 182    0:00   71.6    44    0.0     0      0.0   897.6    0.00       0    78.7
 182    0:10   70.7    47    1.1   207      2.6   897.5    0.00       0    78.6
 182    0:20   70.6    47    0.6   213      2.3   897.5    0.00       0    78.4
 182    0:30   70.5    48    0.2    30      1.4   897.3    0.00       0    78.3
 182    0:40   70.3    48    0.4   105      1.2   897.3    0.00       0    78.2
 182    0:50   69.8    50    0.4    34      1.2   897.1    0.00       0    78.0
 182    1:00   69.3    51    1.5    14      3.0   897.2    0.00       0    77.9
 182    1:10   69.3    50    0.1    39      1.5   896.9    0.00       0    77.7
 182    1:20   68.7    51    1.2    21      2.2   896.5    0.00       0    77.6
 182    1:30   68.6    51    0.2    36      1.0   896.4    0.00       0    77.4
 182    1:40   68.0    52    0.1   216      0.7   896.5    0.00       0    77.2
 182    1:50   67.8    52    0.0     0      0.0   896.7    0.00       0    77.0
 182    2:00   67.6    52    0.1    22      1.1   896.6    0.00       0    76.9
 182    2:10   67.2    53    0.3   197      1.2   896.6    0.00       0    76.7
 182    2:20   66.1    57    0.3   188      1.7   896.5    0.00       0    76.6
 182    2:30   65.8    58    0.5   322      1.5   896.5    0.00       0    76.4
 182    2:40   66.1    56    0.8    18      2.1   896.5    0.00       0    76.2
 182    2:50   66.3    58    0.3    32      1.7   896.5    0.00       0    76.1
 182    3:00   66.5    59    0.7   337      1.4   896.4    0.00       0    76.0
 182    3:10   66.9    57    0.2    22      1.0   896.4    0.00       0    76.0
 182    3:20   66.7    58    1.4    43      2.6   896.5    0.00       0    75.9
 182    3:30   66.9    55    0.4    55      1.9   896.4    0.00       0    75.9
 182    3:40   67.6    54    0.7   322      1.7   896.4    0.00       0    75.8
 182    3:50   68.0    53    0.6   358      1.8   896.5    0.00       0    75.8
 182    4:00   68.1    52    1.3   340      2.8   896.6    0.00       0    75.7
 182    4:10   68.1    53    0.9   220      1.8   896.6    0.00       0    75.7
 182    4:20   68.3    52    1.8   350      3.3   896.7    0.00       0    75.6
 182    4:30   69.2    49    1.1   321      2.6   896.8    0.00       0    75.5
 182    4:40   68.7    50    1.5   284      3.0   896.9    0.00       6    75.4
 182    4:50   68.6    51    0.5   302      1.7   897.0    0.00      17    75.3
 182    5:00   68.4    53    0.0   278      0.6   897.0    0.00      30    75.3
 182    5:10   68.2    55    0.0     0      0.0   897.0    0.00      53    75.2
 182    5:20   69.9    53    0.1    69      0.9   897.0    0.00     113    75.2
 182    5:30   72.8    49    0.1    61      0.7   897.0    0.00     160    75.3
 182    5:40   74.7    46    0.4   195      1.4   897.0    0.00     204    75.4
 182    5:50   74.8    47    0.2   193      1.4   896.9    0.00     246    75.6
 182    6:00   75.8    46    0.1   192      1.0   896.9    0.00     289    76.0
 182    6:10   77.0    41    0.7   204      1.3   896.9    0.00     335    76.4
 182    6:20   78.8    37    1.2   213      1.8   897.0    0.00     368    76.9
 182    6:30   81.3    34    0.4   229      1.4   897.1    0.00     244    77.4
 182    6:40   82.2    34    0.8   280      1.8   897.3    0.00     150    78.1
 182    6:50   81.1    43    0.3   117      2.0   897.4    0.00     174    78.6
 182    7:00   79.6    39    1.6    36      3.4   897.6    0.00     406    79.0
 182    7:10   80.6    34    2.9     2      4.5   897.6    0.00     334    79.4
 182    7:20   80.1    37    1.8    16      3.7   897.7    0.00     132    79.8
 182    7:30   78.8    40    1.9    32      3.1   897.7    0.00     154    80.0
 182    7:40   79.5    41    0.7    29      1.7   897.7    0.00     158    80.1
 182    7:50   79.7    41    1.2    16      2.3   897.7    0.00     157    80.2
 182    8:00   80.2    38    0.7    23      1.5   897.8    0.00     143    80.2
 182    8:10   80.1    46    0.0   207      0.9   897.9    0.00     140    80.3
 182    8:20   80.1    43    0.1    72      1.2   897.9    0.00     142    80.4
 182    8:30   80.2    44    0.2   118      1.1   897.8    0.00     166    80.5
 182    8:40   80.6    42    0.0   183      0.3   897.8    0.00     199    80.6
 182    8:50   81.9    40    0.1   210      1.0   897.8    0.00     236    80.7
 182    9:00   84.0    32    1.8   218      5.3   897.7    0.00     237    80.8
 182    9:10   83.9    32    2.5   206      6.4   897.8    0.00     302    81.1
 182    9:20   84.0    32    1.6   198      3.5   897.8    0.00     208    81.3
 182    9:30   83.1    34    1.5   200      3.1   897.7    0.00     136    81.5
 182    9:40   84.2    33    2.5   207      5.0   897.7    0.00     114    81.6
 182    9:50   85.1    32    2.2   192      5.8   897.7    0.00     115    81.7
 182   10:00   85.4    32    2.1   189      5.5   897.6    0.00     135    81.7
 182   10:10   85.8    32    1.8   182      5.4   897.6    0.00     161    81.7
 182   10:20   85.8    32    1.6   188      6.1   897.6    0.00     271    81.8
 182   10:30   86.6    33    1.9   190      6.4   897.5    0.00     335    81.9
 182   10:40   87.2    31    1.9   184      6.1   897.5    0.00     337    82.2
 182   10:50   87.6    29    1.4   155      5.4   897.4    0.00     286    82.6
 182   11:00   87.7    29    1.2   151      3.3   897.3    0.00     488    83.0
 182   11:10   89.1    28    1.3   152      5.1   897.2    0.00     826    83.3
 182   11:20   90.1    28    1.6   162      8.5   897.0    0.00    1147    83.7
 182   11:30   91.2    28    1.8   178      9.2   896.8    0.00    1129    84.1
 182   11:40   91.8    27    1.6   154      8.1   896.7    0.00    1138    84.5
 182   11:50   91.5    27    1.9   150      7.7   896.5    0.00    1137    84.9
 182   12:00   92.0    27    1.6   151      6.4   896.5    0.00    1149    85.6
 182   12:10   92.4    27    2.0   160      7.6   896.3    0.00    1019    86.7
 182   12:20   91.3    27    1.8   152      7.3   896.2    0.00     666    88.2
 182   12:30   91.4    28    1.7   161      6.8   896.1    0.00     908    89.4
 182   12:40   91.4    27    2.0   165      5.6   896.1    0.00     837    90.2
 182   12:50   91.6    27    1.6   154      5.8   896.0    0.00     731    91.0
 182   13:00   90.8    28    1.8   161      8.7   895.9    0.00     609    91.8
 182   13:10   90.4    29    2.2   173      7.7   895.8    0.00     546    92.2
 182   13:20   89.9    29    1.6   161      6.5   895.7    0.00     534    92.5
 182   13:30   89.7    30    2.3   156      9.7   895.6    0.00     576    92.6
 182   13:40   89.5    30    2.0   156      9.5   895.4    0.00     602    92.6
 182   13:50   90.0    30    2.0   170      8.6   895.2    0.00     636    92.7
 182   14:00   90.7    30    2.2   179      9.8   895.2    0.00     707    92.9
 182   14:10   91.0    30    2.6   180      8.6   895.1    0.00     731    93.1
 182   14:20   90.6    30    3.5   186      8.3   895.0    0.00     672    93.5
 182   14:30   90.6    30    2.9   184      7.1   894.8    0.00     653    93.9
 182   14:40   90.4    31    3.6   192      9.3   894.7    0.00     619    94.2
 182   14:50   91.1    29    2.1   189      7.6   894.6    0.00     632    94.5
 182   15:00   91.5    29    2.1   178      8.1   894.4    0.00     634    94.8
 182   15:10   92.4    27    1.2   174      5.2   894.3    0.00     667    95.1
 182   15:20   92.7    26    1.1   159      4.5   894.4    0.00     424    95.4
 182   15:30   91.0    28    0.9   200      3.4   894.5    0.00     138    95.6
 182   15:40   88.9    22    8.7   324     25.1   895.4    0.00      53    95.5
 182   15:50   85.1    24    7.4   333     14.6   895.7    0.00      45    95.0
 182   16:00   83.3    32    4.3   337      9.9   895.6    0.01      50    94.2
 182   16:10   76.7    55    2.4    62      5.0   895.5    0.04      32    93.3
 182   16:20   72.8    68    3.0    44      6.7   895.6    0.09      26    92.2
 182   16:30   70.3    79    0.7   184      2.9   895.6    0.01      23    91.0
 182   16:40   70.4    80    2.0   224      4.7   895.7    0.00      27    89.7
 182   16:50   71.5    78    1.2   158      4.0   895.7    0.00      27    88.6
 182   17:00   71.7    80    1.5    55      3.5   895.8    0.00      25    87.7
 182   17:10   72.9    74    1.8    32      4.2   895.9    0.00      17    86.9
 182   17:20   75.3    61    2.1    44      4.1   895.9    0.00      13    86.2
 182   17:30   74.6    65    0.9    61      2.6   895.7    0.00      13    85.6
 182   17:40   74.7    63    0.8   221      2.1   895.5    0.01      14    85.1
 182   17:50   74.8    69    1.2   318      2.6   895.4    0.00      22    84.6
 182   18:00   74.4    71    0.6   231      2.6   895.5    0.00      22    84.2
 182   18:10   73.8    71    1.4   255      5.4   895.4    0.00      16    83.8
 182   18:20   75.7    58    2.0   320      4.8   895.6    0.00      13    83.4
 182   18:30   78.8    42    7.0   301     15.8   896.0    0.00      13    83.1
 182   18:40   78.0    43    5.6   318     13.1   896.0    0.00      13    82.7
 182   18:50   76.9    46    4.9   296     11.2   896.0    0.00       9    82.1
 182   19:00   76.7    44    3.5   300     10.5   896.0    0.00       5    81.5
 182   19:10   76.9    43    4.5   291     11.9   896.2    0.00       0    81.0
 182   19:20   77.0    42    4.7   303      9.9   896.2    0.00       0    80.5

Return to Alamo, Nevada graphs page.


Western Regional Climate Center,wrcc@dri.edu